Time;durP1;ratioP1;P1;durP2;ratioP2;P2;SDS_P1;SDS_P2;PMS_P1;PMS_P2;Temp;Humidity;BMP_temperature;BMP_pressure;BME280_temperature;BME280_humidity;BME280_pressure;Samples;Min_cycle;Max_cycle;Signal;HPM_P1;HPM_P2
2023/09/10 00:01:37;;;;;;;13.02;11.77;;;16.90;99.90;;;;;;5020433;28;20054;-71
2023/09/10 00:04:03;;;;;;;14.48;12.10;;;16.80;99.90;;;;;;5017802;28;20034;-70
2023/09/10 00:06:30;;;;;;;13.25;11.95;;;16.90;99.90;;;;;;5014585;28;20095;-71
2023/09/10 00:08:55;;;;;;;12.30;10.98;;;16.90;99.90;;;;;;5028765;28;20052;-71
2023/09/10 00:11:21;;;;;;;11.85;10.18;;;16.90;99.90;;;;;;5029223;28;20837;-70
2023/09/10 00:13:46;;;;;;;11.27;9.35;;;16.80;99.90;;;;;;5028665;28;20053;-71
2023/09/10 00:16:12;;;;;;;10.63;9.52;;;16.80;99.90;;;;;;5007196;28;20046;-71
2023/09/10 00:18:37;;;;;;;12.82;10.85;;;16.80;99.90;;;;;;5001919;28;20159;-70
2023/09/10 00:21:03;;;;;;;11.55;10.50;;;16.80;99.90;;;;;;5027972;28;20485;-71
2023/09/10 00:23:29;;;;;;;10.82;9.70;;;16.90;99.90;;;;;;5028818;28;20049;-70
2023/09/10 00:25:55;;;;;;;12.32;11.02;;;16.80;99.90;;;;;;5007984;28;20038;-71
2023/09/10 00:28:20;;;;;;;11.73;10.63;;;16.80;99.90;;;;;;5002814;28;20102;-71
2023/09/10 00:30:55;;;;;;;12.48;11.25;;;16.80;99.90;;;;;;5009431;28;20189;-71
2023/09/10 00:33:21;;;;;;;13.25;11.85;;;16.70;99.90;;;;;;4997984;28;20057;-72
2023/09/10 00:35:46;;;;;;;14.38;12.63;;;16.80;99.90;;;;;;5014145;28;20483;-70
2023/09/10 00:38:12;;;;;;;14.63;13.07;;;16.70;99.90;;;;;;5021687;28;20111;-72
2023/09/10 00:40:38;;;;;;;16.58;14.63;;;16.70;99.90;;;;;;4999301;28;20056;-71
2023/09/10 00:43:04;;;;;;;15.18;13.57;;;16.70;99.90;;;;;;5028161;28;20041;-71
2023/09/10 00:45:30;;;;;;;14.40;12.90;;;16.70;99.90;;;;;;5014650;28;20057;-71
2023/09/10 00:47:56;;;;;;;14.90;13.40;;;16.70;99.90;;;;;;4999949;28;20065;-70
2023/09/10 00:50:22;;;;;;;15.35;13.63;;;16.70;99.90;;;;;;5005934;28;20491;-71
2023/09/10 00:52:55;;;;;;;18.10;16.27;;;16.70;99.90;;;;;;5006299;28;20042;-73
2023/09/10 00:55:22;;;;;;;17.02;15.23;;;16.60;99.90;;;;;;5006617;28;20096;-70
2023/09/10 00:57:48;;;;;;;15.23;12.63;;;16.60;99.90;;;;;;4998735;28;20058;-70
2023/09/10 01:00:14;;;;;;;16.52;14.75;;;16.60;99.90;;;;;;5031873;28;20507;-70
2023/09/10 01:02:44;;;;;;;13.23;11.93;;;16.50;99.90;;;;;;5031676;28;20095;-71
2023/09/10 01:05:11;;;;;;;15.25;13.65;;;16.60;99.90;;;;;;5010685;28;20045;-71
2023/09/10 01:07:37;;;;;;;15.30;11.65;;;16.60;99.90;;;;;;5013151;28;20046;-70
2023/09/10 01:10:07;;;;;;;9.30;8.40;;;16.60;99.90;;;;;;5003671;28;20049;-70
2023/09/10 01:12:39;;;;;;;9.65;7.90;;;16.50;99.90;;;;;;5029996;28;20033;-70
2023/09/10 01:15:13;;;;;;;9.90;8.73;;;16.50;99.90;;;;;;5026994;28;20513;-71
2023/09/10 01:18:12;;;;;;;12.83;11.53;;;16.50;99.90;;;;;;5028629;28;20049;-71
2023/09/10 01:21:14;;;;;;;14.43;12.68;;;16.50;99.90;;;;;;4996293;28;20300;-70
2023/09/10 01:24:07;;;;;;;11.65;10.55;;;16.40;99.90;;;;;;4945426;29;20055;-70
2023/09/10 01:26:36;;;;;;;14.50;13.00;;;16.40;99.90;;;;;;4934951;29;20542;-70
2023/09/10 01:29:04;;;;;;;14.40;12.95;;;16.30;99.90;;;;;;4934983;29;20059;-70
2023/09/10 01:31:31;;;;;;;14.35;12.88;;;16.30;99.90;;;;;;4935120;29;20055;-71
2023/09/10 01:34:01;;;;;;;13.88;12.48;;;16.30;99.90;;;;;;4935278;29;20050;-71
2023/09/10 01:37:01;;;;;;;14.07;12.60;;;16.30;99.90;;;;;;4950780;29;20039;-72
2023/09/10 01:39:36;;;;;;;11.57;10.27;;;16.30;99.90;;;;;;4950354;29;20089;-71
2023/09/10 01:42:05;;;;;;;9.45;8.55;;;16.20;99.90;;;;;;4950377;28;20070;-71
2023/09/10 01:44:32;;;;;;;11.32;9.52;;;16.20;99.90;;;;;;4950792;29;20051;-71
2023/09/10 01:46:59;;;;;;;12.82;11.27;;;16.20;99.90;;;;;;4934427;29;20067;-72
2023/09/10 01:49:25;;;;;;;13.25;11.85;;;16.20;99.90;;;;;;4934459;29;20051;-74
2023/09/10 01:51:51;;;;;;;13.68;12.27;;;16.20;99.90;;;;;;4934565;29;20569;-71
2023/09/10 01:54:16;;;;;;;16.77;14.98;;;16.10;99.90;;;;;;4950303;29;20198;-70
2023/09/10 01:56:42;;;;;;;21.17;18.15;;;16.10;99.90;;;;;;4950353;29;20051;-72
2023/09/10 01:59:07;;;;;;;16.90;15.18;;;16.10;99.90;;;;;;4950154;28;20059;-71
2023/09/10 02:01:33;;;;;;;18.92;16.95;;;16.10;99.90;;;;;;4990741;28;20050;-73
2023/09/10 02:03:59;;;;;;;21.48;17.70;;;16.10;99.90;;;;;;4990514;28;20062;-71
2023/09/10 02:06:24;;;;;;;18.95;16.83;;;16.10;99.90;;;;;;4991021;28;20057;-72
2023/09/10 02:08:50;;;;;;;13.68;12.27;;;16.10;99.90;;;;;;4972526;28;20069;-74
2023/09/10 02:11:16;;;;;;;17.67;15.68;;;16.10;99.90;;;;;;5010748;28;20054;-73
2023/09/10 02:13:41;;;;;;;19.35;17.25;;;16.00;99.90;;;;;;5010900;28;20038;-71
2023/09/10 02:16:08;;;;;;;20.02;17.92;;;16.10;99.90;;;;;;5010888;28;20501;-71
2023/09/10 02:18:33;;;;;;;20.58;18.27;;;16.00;99.90;;;;;;5010296;28;20041;-71
2023/09/10 02:20:59;;;;;;;20.63;18.42;;;16.00;99.90;;;;;;4992620;28;20397;-71
2023/09/10 02:23:25;;;;;;;20.83;18.63;;;15.90;99.90;;;;;;5011060;28;20053;-71
2023/09/10 02:25:52;;;;;;;19.48;17.42;;;15.90;99.90;;;;;;5010344;28;20502;-73
2023/09/10 02:28:23;;;;;;;24.67;19.05;;;16.00;99.90;;;;;;4993430;28;20537;-71
2023/09/10 02:30:49;;;;;;;22.33;19.13;;;15.90;99.90;;;;;;5010612;28;20405;-71
2023/09/10 02:33:14;;;;;;;20.45;17.77;;;15.90;99.90;;;;;;5010771;28;20034;-70
2023/09/10 02:35:40;;;;;;;24.50;20.95;;;16.00;99.90;;;;;;4988205;28;20042;-71
2023/09/10 02:38:05;;;;;;;24.77;21.95;;;15.80;99.90;;;;;;4989212;28;20041;-71
2023/09/10 02:40:31;;;;;;;24.50;20.85;;;15.80;99.90;;;;;;4988623;28;20053;-71
2023/09/10 02:42:57;;;;;;;31.30;24.20;;;15.80;99.90;;;;;;5010003;28;20048;-70
2023/09/10 02:45:23;;;;;;;24.95;19.80;;;15.80;99.90;;;;;;4992654;28;20048;-71
2023/09/10 02:47:48;;;;;;;22.98;19.05;;;15.70;99.90;;;;;;4992823;28;20474;-71
2023/09/10 02:50:14;;;;;;;20.73;17.92;;;15.70;99.90;;;;;;4976565;28;20049;-71
2023/09/10 02:52:40;;;;;;;23.85;21.35;;;15.70;99.90;;;;;;4991206;28;20138;-70
2023/09/10 02:55:06;;;;;;;26.00;18.95;;;15.70;99.90;;;;;;5009311;28;20046;-71
2023/09/10 02:57:32;;;;;;;24.05;20.15;;;15.70;99.90;;;;;;4993340;28;20064;-70
2023/09/10 02:59:58;;;;;;;25.40;22.27;;;15.70;99.90;;;;;;4991914;28;20401;-70
2023/09/10 03:02:23;;;;;;;23.52;19.40;;;15.70;99.90;;;;;;5006678;28;20052;-71
2023/09/10 03:04:49;;;;;;;24.38;21.65;;;15.70;99.90;;;;;;4978243;28;20057;-71
2023/09/10 03:07:15;;;;;;;22.52;18.98;;;15.60;99.90;;;;;;5001040;28;20044;-71
2023/09/10 03:09:40;;;;;;;19.63;17.52;;;15.60;99.90;;;;;;5007085;28;20069;-71
2023/09/10 03:12:23;;;;;;;19.52;17.45;;;15.60;99.90;;;;;;4991478;28;20046;-70
2023/09/10 03:14:49;;;;;;;20.60;18.23;;;15.60;99.90;;;;;;5009531;28;20054;-73
2023/09/10 03:17:15;;;;;;;25.08;22.17;;;15.60;99.90;;;;;;5008775;28;20038;-71
2023/09/10 03:19:40;;;;;;;19.33;17.30;;;15.60;99.90;;;;;;5008920;28;20057;-71
2023/09/10 03:22:06;;;;;;;18.85;16.83;;;15.60;99.90;;;;;;4988114;28;20038;-72
2023/09/10 03:24:36;;;;;;;18.77;16.63;;;15.50;99.90;;;;;;4991766;28;20094;-71
2023/09/10 03:27:01;;;;;;;15.95;14.00;;;15.60;99.90;;;;;;4981237;28;20493;-70
2023/09/10 03:29:27;;;;;;;13.38;11.25;;;15.60;99.90;;;;;;4984766;28;20106;-70
2023/09/10 03:31:53;;;;;;;12.65;11.35;;;15.50;99.90;;;;;;4992571;28;20049;-70
2023/09/10 03:34:19;;;;;;;14.82;13.07;;;15.60;99.90;;;;;;5007449;28;20045;-72
2023/09/10 03:36:44;;;;;;;14.60;12.55;;;15.50;99.90;;;;;;5004987;28;20049;-70
2023/09/10 03:39:10;;;;;;;21.90;15.13;;;15.50;99.90;;;;;;4997744;28;20050;-71
2023/09/10 03:41:35;;;;;;;26.85;20.48;;;15.50;99.90;;;;;;4990413;28;20042;-70
2023/09/10 03:44:02;;;;;;;20.65;17.55;;;15.40;99.90;;;;;;5006979;28;20049;-71
2023/09/10 03:46:28;;;;;;;22.58;19.13;;;15.40;99.90;;;;;;5008097;28;20052;-70
2023/09/10 03:48:53;;;;;;;21.38;18.98;;;15.40;99.90;;;;;;4999990;28;20046;-70
2023/09/10 03:51:19;;;;;;;21.02;17.92;;;15.40;99.90;;;;;;4972751;28;20382;-71
2023/09/10 03:53:44;;;;;;;20.85;18.48;;;15.40;99.90;;;;;;4995515;28;20053;-71
2023/09/10 03:56:10;;;;;;;19.08;16.15;;;15.40;99.90;;;;;;5006523;28;20057;-71
2023/09/10 03:58:36;;;;;;;17.85;15.95;;;15.40;99.90;;;;;;5016420;28;20120;-72
2023/09/10 04:01:02;;;;;;;22.65;18.95;;;15.40;99.90;;;;;;5003554;28;20046;-72
2023/09/10 04:03:27;;;;;;;26.25;21.73;;;15.40;99.90;;;;;;5017545;28;20041;-70
2023/09/10 04:05:53;;;;;;;27.77;22.15;;;15.40;99.90;;;;;;5015607;28;20056;-71
2023/09/10 04:08:19;;;;;;;27.55;22.05;;;15.40;99.90;;;;;;5013772;28;20165;-71
2023/09/10 04:10:44;;;;;;;27.00;22.88;;;15.40;99.90;;;;;;5003836;28;20453;-73
2023/09/10 04:13:10;;;;;;;32.40;25.75;;;15.40;99.90;;;;;;5013181;28;20042;-71
2023/09/10 04:15:36;;;;;;;46.45;33.10;;;15.30;99.90;;;;;;5011392;28;20054;-71
2023/09/10 04:18:05;;;;;;;37.45;29.70;;;15.30;99.90;;;;;;5012849;28;20049;-71
2023/09/10 04:20:31;;;;;;;26.45;22.73;;;15.30;99.90;;;;;;5005333;28;20513;-70
2023/09/10 04:22:57;;;;;;;30.95;26.27;;;15.30;99.90;;;;;;5015340;28;20077;-71
2023/09/10 04:25:23;;;;;;;30.50;25.90;;;15.20;99.90;;;;;;5012019;28;20143;-71
2023/09/10 04:27:49;;;;;;;18.08;16.20;;;15.20;99.90;;;;;;4985555;28;20054;-70
2023/09/10 04:30:15;;;;;;;16.20;14.52;;;15.20;99.90;;;;;;5002632;28;20099;-70
2023/09/10 04:32:40;;;;;;;14.75;13.25;;;15.20;99.90;;;;;;5002023;28;20037;-73
2023/09/10 04:35:07;;;;;;;14.60;13.02;;;15.20;99.90;;;;;;4997813;28;20044;-70
2023/09/10 04:37:34;;;;;;;14.55;13.05;;;15.20;99.90;;;;;;4982658;28;20045;-71
2023/09/10 04:40:07;;;;;;;16.98;15.27;;;15.20;99.90;;;;;;5008514;28;20097;-71
2023/09/10 04:42:36;;;;;;;21.52;19.17;;;15.20;99.90;;;;;;5002708;28;20124;-70
2023/09/10 04:45:03;;;;;;;18.77;16.88;;;15.20;99.90;;;;;;5012896;28;20444;-69
2023/09/10 04:47:29;;;;;;;13.82;12.43;;;15.10;99.90;;;;;;5002835;28;20133;-70
2023/09/10 04:49:55;;;;;;;12.50;11.30;;;15.00;99.90;;;;;;5012424;28;20055;-71
2023/09/10 04:52:20;;;;;;;15.73;14.10;;;15.10;99.90;;;;;;5019356;28;20061;-70
2023/09/10 04:54:46;;;;;;;16.05;13.70;;;15.10;99.90;;;;;;4998327;28;20049;-70
2023/09/10 04:57:11;;;;;;;20.33;17.98;;;15.10;99.90;;;;;;4998438;28;20049;-70
2023/09/10 04:59:37;;;;;;;19.13;17.05;;;15.10;99.90;;;;;;5027639;28;20136;-71
2023/09/10 05:02:04;;;;;;;20.10;16.83;;;15.00;99.90;;;;;;5006713;28;20695;-70
2023/09/10 05:04:30;;;;;;;18.13;16.13;;;15.00;99.90;;;;;;5002578;28;20050;-71
2023/09/10 05:06:57;;;;;;;15.48;12.70;;;15.00;99.90;;;;;;5023100;28;20040;-70
2023/09/10 05:09:22;;;;;;;19.02;14.38;;;15.00;99.90;;;;;;5023442;28;20485;-73
2023/09/10 05:11:48;;;;;;;16.70;14.55;;;15.00;99.90;;;;;;5025527;28;20129;-70
2023/09/10 05:14:14;;;;;;;16.50;14.68;;;15.00;99.90;;;;;;5023158;28;20060;-72
2023/09/10 05:16:39;;;;;;;17.20;15.23;;;15.00;99.90;;;;;;5029268;28;20061;-71
2023/09/10 05:19:05;;;;;;;18.35;16.42;;;15.00;99.90;;;;;;4997629;28;20050;-70
2023/09/10 05:21:31;;;;;;;15.60;14.00;;;15.10;99.90;;;;;;5023373;28;20132;-71
2023/09/10 05:23:57;;;;;;;20.80;16.85;;;15.10;99.90;;;;;;5005200;28;20136;-71
2023/09/10 05:26:22;;;;;;;18.90;16.90;;;15.10;99.90;;;;;;5002408;28;20049;-74
2023/09/10 05:28:48;;;;;;;11.98;10.77;;;15.10;99.90;;;;;;5003294;28;20530;-70
2023/09/10 05:31:14;;;;;;;15.52;13.93;;;15.10;99.90;;;;;;5020833;28;20045;-70
2023/09/10 05:33:39;;;;;;;15.85;14.15;;;15.10;99.90;;;;;;5012021;28;20048;-69
2023/09/10 05:36:06;;;;;;;19.05;17.05;;;15.20;99.90;;;;;;5002431;28;20045;-74
2023/09/10 05:38:31;;;;;;;19.98;17.88;;;15.20;99.90;;;;;;5010045;28;20468;-70
2023/09/10 05:41:02;;;;;;;20.63;18.42;;;15.20;99.90;;;;;;5004720;28;20076;-71
2023/09/10 05:43:31;;;;;;;18.90;16.92;;;15.20;99.90;;;;;;5010918;28;20041;-72
2023/09/10 05:45:57;;;;;;;19.98;17.88;;;15.20;99.90;;;;;;5014194;28;20046;-71
2023/09/10 05:48:23;;;;;;;23.13;19.65;;;15.30;99.90;;;;;;5002594;28;20085;-73
2023/09/10 05:50:49;;;;;;;23.20;20.45;;;15.40;99.90;;;;;;5008090;28;20091;-70
2023/09/10 05:53:15;;;;;;;25.20;22.17;;;15.40;99.90;;;;;;5005261;28;20041;-71
2023/09/10 05:55:41;;;;;;;26.30;21.67;;;15.40;99.90;;;;;;5004834;28;20121;-71
2023/09/10 05:58:11;;;;;;;28.58;24.10;;;15.50;99.90;;;;;;5022663;28;20456;-70
2023/09/10 06:00:37;;;;;;;27.10;21.40;;;15.50;99.90;;;;;;5002726;28;20057;-71
2023/09/10 06:03:03;;;;;;;28.50;24.58;;;15.50;99.90;;;;;;5004990;28;20052;-70
2023/09/10 06:05:30;;;;;;;27.17;23.88;;;15.60;99.90;;;;;;5005059;28;20449;-70
2023/09/10 06:07:55;;;;;;;27.92;23.35;;;15.60;99.90;;;;;;5022417;28;20046;-70
2023/09/10 06:10:21;;;;;;;24.40;21.38;;;15.70;99.90;;;;;;5023068;28;20148;-70
2023/09/10 06:12:47;;;;;;;26.15;23.30;;;15.80;99.90;;;;;;5019455;28;20472;-70
2023/09/10 06:15:12;;;;;;;23.90;21.40;;;15.80;99.90;;;;;;5005113;28;20046;-70
2023/09/10 06:17:38;;;;;;;27.52;24.35;;;15.90;99.90;;;;;;5026367;28;20754;-70
2023/09/10 06:20:04;;;;;;;28.23;24.70;;;16.00;99.90;;;;;;5029687;28;20056;-73
2023/09/10 06:22:30;;;;;;;29.92;24.73;;;16.10;99.90;;;;;;5007275;28;20054;-71
2023/09/10 06:24:56;;;;;;;29.63;25.60;;;16.10;99.90;;;;;;5007188;28;20061;-71
2023/09/10 06:27:22;;;;;;;29.88;26.73;;;16.20;99.90;;;;;;5030444;28;20041;-73
2023/09/10 06:29:48;;;;;;;32.45;27.40;;;16.30;99.90;;;;;;5005298;28;20037;-75
2023/09/10 06:32:13;;;;;;;35.33;29.40;;;16.40;99.90;;;;;;5000197;28;20141;-70
2023/09/10 06:34:39;;;;;;;32.33;28.38;;;16.50;99.90;;;;;;5016457;28;20048;-72
2023/09/10 06:37:05;;;;;;;31.73;28.20;;;16.60;99.90;;;;;;5004239;28;20037;-74
2023/09/10 06:39:38;;;;;;;32.80;29.17;;;16.70;99.90;;;;;;4994744;28;20389;-72
2023/09/10 06:42:11;;;;;;;34.78;30.00;;;16.80;99.90;;;;;;4993025;28;20124;-71
2023/09/10 06:44:38;;;;;;;36.67;30.42;;;16.90;99.90;;;;;;5016919;28;20053;-71
2023/09/10 06:47:05;;;;;;;52.65;40.95;;;17.00;99.90;;;;;;4998875;28;20061;-73
2023/09/10 06:49:30;;;;;;;41.72;34.28;;;17.10;99.90;;;;;;5029753;28;20412;-72
2023/09/10 06:51:56;;;;;;;40.88;33.13;;;17.20;99.90;;;;;;5014412;28;20037;-71
2023/09/10 06:54:23;;;;;;;44.20;35.63;;;17.30;99.90;;;;;;5029610;28;20068;-71
2023/09/10 06:56:48;;;;;;;46.88;38.40;;;17.40;99.90;;;;;;5029620;28;20033;-74
2023/09/10 06:59:14;;;;;;;43.60;35.47;;;17.50;99.90;;;;;;5008196;28;20053;-73
2023/09/10 07:01:39;;;;;;;49.13;38.03;;;17.60;99.90;;;;;;5003721;28;20062;-71
2023/09/10 07:04:20;;;;;;;42.78;37.50;;;17.70;99.90;;;;;;5023136;28;20046;-71
2023/09/10 07:06:47;;;;;;;45.00;37.70;;;17.80;99.90;;;;;;5022334;28;20107;-73
2023/09/10 07:09:14;;;;;;;43.25;36.13;;;18.00;99.90;;;;;;5005142;28;20050;-71
2023/09/10 07:11:39;;;;;;;51.08;38.95;;;18.10;99.90;;;;;;5011755;28;20373;-71
2023/09/10 07:14:05;;;;;;;48.22;37.45;;;18.20;99.90;;;;;;5011667;28;20056;-71
2023/09/10 07:16:32;;;;;;;40.80;34.20;;;18.30;99.90;;;;;;5029519;28;20089;-73
2023/09/10 07:18:58;;;;;;;42.30;36.10;;;18.40;99.90;;;;;;5029293;28;20186;-71
2023/09/10 07:21:23;;;;;;;43.67;35.85;;;18.50;99.90;;;;;;5029397;28;20049;-71
2023/09/10 07:23:49;;;;;;;41.80;35.42;;;18.60;99.90;;;;;;5021462;28;20049;-73
2023/09/10 07:26:14;;;;;;;37.17;32.50;;;18.80;99.90;;;;;;5002809;28;20508;-74
2023/09/10 07:28:41;;;;;;;45.28;37.90;;;18.90;99.90;;;;;;5003583;28;20385;-73
2023/09/10 07:31:07;;;;;;;41.65;35.55;;;19.00;99.90;;;;;;5002290;28;20436;-71
2023/09/10 07:33:33;;;;;;;44.25;37.53;;;19.10;99.90;;;;;;5003554;28;20041;-71
2023/09/10 07:35:59;;;;;;;39.58;33.83;;;19.30;99.90;;;;;;5021453;28;20504;-73
2023/09/10 07:38:24;;;;;;;40.50;32.30;;;19.40;99.90;;;;;;5002240;28;20045;-71
2023/09/10 07:40:50;;;;;;;36.08;31.83;;;19.50;99.90;;;;;;5007404;28;20104;-72
2023/09/10 07:43:15;;;;;;;37.20;32.53;;;19.60;99.90;;;;;;5024767;28;20046;-72
2023/09/10 07:45:41;;;;;;;36.20;30.85;;;19.70;99.90;;;;;;5008031;28;20045;-70
2023/09/10 07:48:07;;;;;;;34.30;30.70;;;19.90;99.90;;;;;;5025094;28;20041;-74
2023/09/10 07:50:32;;;;;;;37.90;30.63;;;20.00;99.90;;;;;;5004907;28;20053;-72
2023/09/10 07:52:58;;;;;;;34.83;30.33;;;20.10;99.90;;;;;;5007626;28;20099;-71
2023/09/10 07:55:25;;;;;;;33.83;30.17;;;20.30;99.90;;;;;;5024816;28;20052;-71
2023/09/10 07:57:50;;;;;;;36.58;29.83;;;20.40;99.90;;;;;;5007611;28;20061;-71
2023/09/10 08:00:17;;;;;;;31.60;26.33;;;20.50;99.90;;;;;;5006981;28;20061;-71
2023/09/10 08:02:42;;;;;;;32.40;27.83;;;20.70;99.90;;;;;;5023382;28;20133;-71
2023/09/10 08:05:08;;;;;;;30.08;26.80;;;20.80;99.90;;;;;;5021987;28;20141;-72
2023/09/10 08:07:34;;;;;;;28.90;25.70;;;20.90;99.90;;;;;;5006183;28;20056;-69
2023/09/10 08:10:01;;;;;;;31.45;25.58;;;21.10;99.90;;;;;;5018815;28;20050;-70
2023/09/10 08:12:26;;;;;;;31.52;25.10;;;21.30;99.90;;;;;;5009264;28;20050;-71
2023/09/10 08:14:52;;;;;;;26.15;23.35;;;21.50;99.90;;;;;;5004353;28;20409;-71
2023/09/10 08:17:18;;;;;;;26.40;22.25;;;21.70;99.90;;;;;;5024180;28;20125;-71
2023/09/10 08:19:43;;;;;;;24.13;21.60;;;21.90;99.90;;;;;;5000366;28;20126;-70
2023/09/10 08:22:09;;;;;;;24.63;21.88;;;22.10;99.90;;;;;;5009640;28;20046;-71
2023/09/10 08:24:35;;;;;;;24.88;22.25;;;22.40;99.90;;;;;;5008292;28;20557;-71
2023/09/10 08:27:03;;;;;;;25.00;22.05;;;22.60;99.90;;;;;;5013972;28;20052;-71
2023/09/10 08:29:29;;;;;;;21.42;19.17;;;22.80;99.90;;;;;;5020872;28;20120;-75
2023/09/10 08:31:55;;;;;;;23.42;20.02;;;23.10;99.90;;;;;;5012805;28;20121;-72
2023/09/10 08:34:21;;;;;;;22.25;19.98;;;23.30;99.90;;;;;;4994256;28;20097;-71
2023/09/10 08:36:47;;;;;;;21.25;18.90;;;23.50;99.90;;;;;;4989300;28;20058;-71
2023/09/10 08:39:12;;;;;;;22.95;18.23;;;23.80;99.90;;;;;;5013717;28;20053;-72
2023/09/10 08:41:50;;;;;;;26.13;18.80;;;24.00;99.90;;;;;;4991128;28;20065;-73
2023/09/10 08:44:17;;;;;;;20.08;17.58;;;24.20;99.90;;;;;;5019333;28;20469;-72
2023/09/10 08:46:44;;;;;;;24.65;16.85;;;24.40;99.90;;;;;;5000668;28;20103;-74
2023/09/10 08:49:13;;;;;;;18.92;16.30;;;24.50;99.90;;;;;;5023571;28;20049;-73
2023/09/10 08:51:39;;;;;;;17.25;14.82;;;24.70;99.90;;;;;;5019617;28;20158;-71
2023/09/10 08:54:07;;;;;;;17.58;14.77;;;24.90;99.90;;;;;;5006901;28;20532;-71
2023/09/10 08:56:34;;;;;;;15.32;13.23;;;25.10;99.90;;;;;;5015476;28;20050;-70
2023/09/10 08:59:01;;;;;;;13.57;12.18;;;25.40;99.90;;;;;;5020204;28;20570;-72
2023/09/10 09:01:26;;;;;;;16.45;14.68;;;25.60;99.90;;;;;;5005689;28;20053;-71
2023/09/10 09:03:52;;;;;;;16.88;14.00;;;25.70;99.90;;;;;;5025664;28;20030;-71
2023/09/10 09:06:18;;;;;;;17.02;12.82;;;25.80;99.90;;;;;;5022694;28;20047;-71
2023/09/10 09:08:49;;;;;;;13.80;12.27;;;25.90;99.90;;;;;;5003601;28;20132;-71
2023/09/10 09:11:16;;;;;;;18.63;12.23;;;26.10;99.90;;;;;;5023428;28;20045;-72
2023/09/10 09:13:44;;;;;;;18.35;13.23;;;26.30;99.90;;;;;;5014635;28;20068;-71
2023/09/10 09:16:11;;;;;;;17.15;12.35;;;26.40;99.90;;;;;;5008104;28;20053;-71
2023/09/10 09:18:39;;;;;;;17.17;12.23;;;26.60;99.90;;;;;;5021075;28;20048;-73
2023/09/10 09:21:16;;;;;;;17.50;11.60;;;26.60;99.90;;;;;;5022410;28;20057;-72
2023/09/10 09:24:03;;;;;;;13.75;10.32;;;26.90;99.90;;;;;;5011657;28;20077;-71
2023/09/10 09:26:29;;;;;;;14.73;10.27;;;27.10;99.90;;;;;;5002181;28;20057;-74
2023/09/10 09:28:56;;;;;;;13.25;9.57;;;27.20;99.90;;;;;;5007043;28;20600;-73
2023/09/10 09:31:22;;;;;;;15.30;9.57;;;27.40;99.90;;;;;;5002361;28;20096;-73
2023/09/10 09:33:49;;;;;;;12.52;8.68;;;27.50;99.90;;;;;;5010589;28;20069;-72
2023/09/10 09:36:15;;;;;;;10.02;8.20;;;27.70;99.90;;;;;;5017338;28;20050;-73
2023/09/10 09:38:46;;;;;;;10.32;8.25;;;27.90;99.90;;;;;;5001829;28;20042;-71
2023/09/10 09:41:16;;;;;;;13.75;8.25;;;28.00;99.90;;;;;;5019850;28;20046;-73
2023/09/10 09:43:42;;;;;;;13.68;8.15;;;28.20;99.90;;;;;;5001148;28;20472;-72
2023/09/10 09:46:08;;;;;;;11.30;8.35;;;28.30;99.90;;;;;;5008003;28;20049;-72
2023/09/10 09:48:34;;;;;;;14.43;8.82;;;28.40;99.90;;;;;;4998905;28;20052;-70
2023/09/10 09:51:02;;;;;;;14.65;8.38;;;28.40;99.90;;;;;;5022608;28;20072;-72
2023/09/10 09:53:30;;;;;;;10.60;7.63;;;28.50;99.90;;;;;;5019193;28;20438;-74
2023/09/10 09:56:00;;;;;;;11.55;8.75;;;28.50;99.90;;;;;;5003067;28;20033;-70
2023/09/10 09:58:26;;;;;;;14.70;7.32;;;28.80;99.90;;;;;;5003349;28;20100;-73
2023/09/10 10:00:52;;;;;;;9.88;7.22;;;28.90;99.90;;;;;;5004255;28;20085;-74
2023/09/10 10:03:18;;;;;;;13.15;7.20;;;29.10;99.90;;;;;;4995293;28;20080;-72
2023/09/10 10:05:47;;;;;;;10.30;7.30;;;29.10;99.90;;;;;;5028955;28;20409;-72
2023/09/10 10:08:15;;;;;;;10.93;6.50;;;29.20;99.90;;;;;;5006400;28;20093;-72
2023/09/10 10:10:48;;;;;;;9.13;6.35;;;29.30;99.90;;;;;;5002760;28;20475;-71
2023/09/10 10:13:22;;;;;;;13.77;6.95;;;29.40;99.90;;;;;;5023296;28;20072;-71
2023/09/10 10:15:50;;;;;;;10.27;6.88;;;29.50;99.90;;;;;;5021515;28;20056;-71
2023/09/10 10:18:17;;;;;;;14.98;6.80;;;29.60;99.90;;;;;;4992213;28;20128;-70
2023/09/10 10:20:47;;;;;;;14.25;6.60;;;29.80;99.90;;;;;;5024207;28;20048;-70
2023/09/10 10:23:18;;;;;;;17.58;6.97;;;29.90;99.90;;;;;;5012111;28;20045;-70
2023/09/10 10:25:46;;;;;;;11.43;5.95;;;29.90;99.90;;;;;;5029828;28;20529;-72
2023/09/10 10:28:13;;;;;;;11.80;6.18;;;30.10;99.90;;;;;;5025354;28;20044;-70
2023/09/10 10:31:04;;;;;;;13.32;6.22;;;30.20;99.90;;;;;;4981691;28;20051;-71
2023/09/10 10:33:33;;;;;;;13.20;5.80;;;30.20;99.90;;;;;;5017089;28;20054;-71
2023/09/10 10:36:11;;;;;;;11.07;6.10;;;30.40;99.90;;;;;;5008965;28;20060;-72
2023/09/10 10:38:43;;;;;;;12.05;5.88;;;30.50;99.90;;;;;;5001533;28;20053;-72
2023/09/10 10:41:16;;;;;;;12.90;6.57;;;30.60;99.90;;;;;;4984113;28;20184;-73
2023/09/10 10:43:50;;;;;;;11.00;5.68;;;30.60;99.90;;;;;;5003779;28;20120;-71
2023/09/10 10:46:17;;;;;;;;;;;30.70;99.90;;;;;;5021447;28;20050;-72
2023/09/10 10:48:43;;;;;;;10.27;5.70;;;30.70;99.90;;;;;;5021335;28;20364;-71
2023/09/10 10:51:14;;;;;;;10.48;5.80;;;30.90;99.90;;;;;;5004149;28;20045;-73
2023/09/10 10:53:40;;;;;;;10.85;5.70;;;31.00;99.90;;;;;;5023325;28;20556;-72
2023/09/10 10:56:06;;;;;;;7.85;6.18;;;31.00;99.90;;;;;;5028800;28;20030;-73
2023/09/10 10:58:37;;;;;;;12.35;6.00;;;31.10;99.90;;;;;;5008217;28;20379;-73
2023/09/10 11:01:03;;;;;;;12.88;6.22;;;31.00;99.90;;;;;;4999413;28;20049;-73
2023/09/10 11:03:28;;;;;;;11.13;6.10;;;31.10;99.90;;;;;;5000067;28;20052;-72
2023/09/10 11:06:04;;;;;;;15.73;5.88;;;31.20;99.90;;;;;;5009255;28;20044;-73
2023/09/10 11:08:35;;;;;;;10.13;6.40;;;31.30;99.90;;;;;;5009614;28;20115;-72
2023/09/10 11:11:03;;;;;;;10.90;5.45;;;31.40;99.90;;;;;;4998251;28;20093;-73
2023/09/10 11:13:31;;;;;;;18.23;6.18;;;31.50;99.90;;;;;;4978407;28;20143;-72
2023/09/10 11:16:05;;;;;;;10.40;5.78;;;31.50;99.90;;;;;;4996269;28;20046;-72
2023/09/10 11:18:37;;;;;;;9.13;5.50;;;31.70;99.90;;;;;;5001848;28;20051;-73
2023/09/10 11:21:11;;;;;;;11.05;5.63;;;31.70;99.90;;;;;;5012458;28;20053;-74
2023/09/10 11:23:37;;;;;;;;;;;31.70;99.90;;;;;;5000411;28;20049;-73
2023/09/10 11:26:12;;;;;;;11.55;5.85;;;31.60;99.90;;;;;;4999448;28;19957;-73
2023/09/10 11:28:38;;;;;;;10.60;5.45;;;31.80;99.90;;;;;;4989979;28;20053;-75
2023/09/10 11:31:04;;;;;;;12.98;5.45;;;31.90;99.90;;;;;;4978874;28;20399;-72
2023/09/10 11:33:31;;;;;;;25.55;5.90;;;32.00;99.90;;;;;;5009298;28;20124;-75
2023/09/10 11:35:58;;;;;;;14.85;6.25;;;32.10;99.90;;;;;;4999620;28;20085;-75
2023/09/10 11:38:30;;;;;;;14.80;5.50;;;32.00;99.90;;;;;;4999130;28;20049;-75
2023/09/10 11:40:56;;;;;;;10.75;5.53;;;32.20;99.90;;;;;;4976523;28;20046;-72
2023/09/10 11:43:23;;;;;;;15.65;5.40;;;32.20;99.90;;;;;;4984035;28;20050;-73
2023/09/10 11:45:48;;;;;;;11.82;5.22;;;32.20;99.90;;;;;;5002936;28;20084;-74
2023/09/10 11:48:14;;;;;;;16.05;6.35;;;32.20;99.90;;;;;;5008721;28;20129;-72
2023/09/10 11:50:39;;;;;;;12.13;4.95;;;32.30;99.90;;;;;;4999808;28;20073;-74
2023/09/10 11:53:05;;;;;;;11.95;5.65;;;32.30;99.90;;;;;;5002376;28;20133;-74
2023/09/10 11:55:31;;;;;;;11.43;5.03;;;32.30;99.90;;;;;;5007399;28;20081;-75
2023/09/10 11:57:56;;;;;;;15.45;6.20;;;32.30;99.90;;;;;;5010058;28;20458;-73
2023/09/10 12:00:23;;;;;;;13.27;5.05;;;32.30;99.90;;;;;;5003477;28;20472;-72
2023/09/10 12:02:49;;;;;;;10.27;5.25;;;32.30;99.90;;;;;;5009018;28;20116;-73
2023/09/10 12:05:15;;;;;;;11.90;5.70;;;32.30;99.90;;;;;;5008579;28;20046;-73
2023/09/10 12:07:44;;;;;;;10.98;5.63;;;32.40;99.90;;;;;;4991687;28;20049;-73
2023/09/10 12:10:12;;;;;;;19.88;5.95;;;32.40;99.90;;;;;;5009199;28;20050;-72
2023/09/10 12:12:39;;;;;;;10.52;5.30;;;32.30;99.90;;;;;;4999594;28;20092;-73
2023/09/10 12:15:06;;;;;;;14.35;5.47;;;32.40;99.90;;;;;;5001271;28;20057;-72
2023/09/10 12:17:31;;;;;;;13.10;5.20;;;32.40;99.90;;;;;;4999328;28;20050;-73
2023/09/10 12:19:58;;;;;;;9.35;5.47;;;32.50;99.90;;;;;;4998967;28;20050;-73
2023/09/10 12:22:24;;;;;;;17.85;5.88;;;32.40;99.90;;;;;;4999724;28;20057;-72
2023/09/10 12:24:50;;;;;;;9.50;5.80;;;32.50;99.90;;;;;;5008969;28;20053;-73
2023/09/10 12:27:16;;;;;;;11.13;5.20;;;32.50;99.90;;;;;;5010677;28;20053;-72
2023/09/10 12:29:42;;;;;;;19.65;5.55;;;32.60;99.90;;;;;;5002850;28;20133;-73
2023/09/10 12:32:08;;;;;;;15.07;5.70;;;32.60;99.90;;;;;;5012271;28;20046;-72